KWRB

Robins AFB Airport

Warner Robins, Georgia, USA
TAF KWRB 232225Z 2322/2504 17009KT 9999 SCT020 BKN040 QNH2980INS TEMPO 2322/2402 VRB15G25KT 4800 -TSRA BKN015CB BECMG 2401/2402 23006KT 8000 BR BKN030 QNH2987INS BECMG 2414/2415 24012KT 9999 NSW BKN045 QNH2991INS BECMG 2417/2418 26012G18KT 9999 BKN035 QNH2986INS BECMG 2423/2424 27006KT 9999 BKN035 QNH2988INS TX27/2322Z TN14/2411Z
Issued Valid From Valid To
Apr-23 @ 22:25 UTC
(31 minutes ago)
Apr-23 @ 22:00 UTC
(56 minutes ago)
Apr-25 @ 04:00 UTC
(-1 days ago)
Apr-23 @ 22:00 to Apr-24 @ 01:00
TAF KWRB 232225Z 2322/2504 17009KT 9999 SCT020 BKN040 QNH2980INS
Wind Visibility Clouds Readings
170° at 9 knots Greater than 6 miles
  • Scattered at 2,000' AGL
  • Broken at 4,000' AGL
Altimeter 29.79" Hg
Pressure 1009 hPa
Temporary Apr-23 @ 22:00 to Apr-24 @ 02:00
TEMPO 2322/2402 VRB15G25KT 4800 -TSRA BKN015CB
Wind Visibility Clouds Conditions
Variable at 15 knots
 Gusting to 25 knots
21/98 miles
  • Broken at 1,500' AGL
  • Light Thunderstorm
  • Light Rain
Becoming Apr-24 @ 01:00 to Apr-24 @ 14:00
BECMG 2401/2402 23006KT 8000 BR BKN030 QNH2987INS
Wind Visibility Clouds Conditions Readings
230° at 6 knots 41/97 miles
  • Broken at 3,000' AGL
  • Mist
Altimeter 29.88" Hg
Pressure 1012 hPa
Becoming Apr-24 @ 14:00 to Apr-24 @ 17:00
BECMG 2414/2415 24012KT 9999 NSW BKN045 QNH2991INS
Wind Visibility Clouds Conditions Readings
240° at 12 knots Greater than 6 miles
  • Broken at 4,500' AGL
Altimeter 29.91" Hg
Pressure 1013 hPa
Becoming Apr-24 @ 17:00 to Apr-24 @ 23:00
BECMG 2417/2418 26012G18KT 9999 BKN035 QNH2986INS
Wind Visibility Clouds Conditions Readings
260° at 12 knots
 Gusting to 18 knots
Greater than 6 miles
  • Broken at 3,500' AGL
Altimeter 29.85" Hg
Pressure 1011 hPa
Becoming Apr-24 @ 23:00 to Apr-25 @ 04:00
BECMG 2423/2424 27006KT 9999 BKN035 QNH2988INS TX27/2322Z TN14/2411Z
Wind Visibility Clouds Conditions Readings
270° at 6 knots Greater than 6 miles
  • Broken at 3,500' AGL
Altimeter 29.88" Hg
Pressure 1012 hPa
TAF KWRB 232225Z 2322/2504 17009KT 9999 SCT020 BKN040 QNH2980INS TEMPO 2322/2402 VRB15G25KT 4800 -TSRA BKN015CB BECMG 2401/2402 23006KT 8000 BR BKN030 QNH2987INS BECMG 2414/2415 24012KT 9999 NSW BKN045 QNH2991INS BECMG 2417/2418 26012G18KT 9999 BKN035 QNH2986INS BECMG 2423/2424 27006KT 9999 BKN035 QNH2988INS TX27/2322Z TN14/2411Z
Issued Apr-23 @ 22:25 UTC
(31 minutes ago)
Valid From Apr-23 @ 22:00 UTC
(56 minutes ago)
Valid To Apr-25 @ 04:00 UTC
(-1 days ago)
Apr-23 @ 22:00 - Apr-24 @ 01:00
Wind Visibility
170° at 9 knots Greater than 6 miles
Clouds
  • Scattered at 2,000' AGL
  • Broken at 4,000' AGL
Temporary Apr-23 @ 22:00 - Apr-24 @ 02:00
Wind Visibility
Variable at 15 knots
 Gusting to 25 knots
21/98 miles
Clouds
  • Broken at 1,500' AGL
Conditions
  • Light Thunderstorm
  • Light Rain
Becoming Apr-24 @ 01:00 - Apr-24 @ 14:00
Wind Visibility
230° at 6 knots 41/97 miles
Clouds
  • Broken at 3,000' AGL
Conditions
  • Mist
Becoming Apr-24 @ 14:00 - Apr-24 @ 17:00
Wind Visibility
240° at 12 knots Greater than 6 miles
Clouds
  • Broken at 4,500' AGL
Conditions
Becoming Apr-24 @ 17:00 - Apr-24 @ 23:00
Wind Visibility
260° at 12 knots
 Gusting to 18 knots
Greater than 6 miles
Clouds
  • Broken at 3,500' AGL
Conditions
Becoming Apr-24 @ 23:00 - Apr-25 @ 04:00
Wind Visibility
270° at 6 knots Greater than 6 miles
Clouds
  • Broken at 3,500' AGL
Conditions